Time;durP1;ratioP1;P1;durP2;ratioP2;P2;SDS_P1;SDS_P2;PMS_P1;PMS_P2;Temp;Humidity;BMP_temperature;BMP_pressure;BME280_temperature;BME280_humidity;BME280_pressure;Samples;Min_cycle;Max_cycle;Signal;HPM_P1;HPM_P2
2022/12/22 03:25:52;;;;;;;;;;;15.60;83.50;;;;;;5100013;28;20296;-92
2022/12/22 03:28:20;;;;;;;;;;;15.60;83.50;;;;;;5082129;28;19908;-92
2022/12/22 03:30:51;;;;;;;;;;;15.60;83.50;;;;;;5114560;28;20281;-93
2022/12/22 03:33:16;;;;;;;;;;;15.60;83.50;;;;;;5115963;28;19920;-92
2022/12/22 03:35:43;;;;;;;;;;;15.60;83.60;;;;;;5081074;28;19920;-92
2022/12/22 03:38:08;;;;;;;;;;;15.60;83.80;;;;;;5114956;28;19937;-92
2022/12/22 03:40:34;;;;;;;;;;;15.60;83.80;;;;;;5081081;28;20021;-92
2022/12/22 03:48:28;;;;;;;;;;;15.60;84.20;;;;;;5098570;28;19946;-92
2022/12/22 03:50:53;;;;;;;;;;;15.50;84.30;;;;;;5079684;28;19973;-92
2022/12/22 03:53:19;;;;;;;;;;;15.50;84.40;;;;;;5078917;28;20353;-92
2022/12/22 03:55:45;;;;;;;;;;;15.50;84.50;;;;;;5078412;28;20238;-92
2022/12/22 03:58:10;;;;;;;;;;;15.50;84.60;;;;;;5078172;28;19998;-91
2022/12/22 04:00:36;;;;;;;;;;;15.50;84.80;;;;;;5077195;28;19965;-91
2022/12/22 04:03:01;;;;;;;;;;;15.40;84.90;;;;;;5077348;28;19908;-91
2022/12/22 04:05:27;;;;;;;;;;;15.40;85.20;;;;;;5077617;28;19946;-92
2022/12/22 04:07:52;;;;;;;;;;;15.70;85.70;;;;;;5077116;28;20265;-92
2022/12/22 04:13:02;;;;;;;;;;;17.40;73.40;;;;;;5095496;28;19915;-91
2022/12/22 04:15:29;;;;;;;;;;;17.90;69.50;;;;;;5077494;28;19908;-92
2022/12/22 04:17:55;;;;;;;;;;;18.20;68.00;;;;;;5111265;28;19908;-92
2022/12/22 04:20:22;;;;;;;;;;;18.30;66.90;;;;;;5112608;28;20002;-92
2022/12/22 04:22:47;;;;;;;;;;;18.40;66.10;;;;;;5112057;28;19981;-92
2022/12/22 04:25:13;;;;;;;;;;;18.50;65.40;;;;;;5112270;28;19947;-92
2022/12/22 04:27:39;;;;;;;;;;;18.50;65.10;;;;;;5112921;28;19923;-93
2022/12/22 04:30:07;;;;;;;;;;;18.50;64.80;;;;;;5114117;28;21482;-93
2022/12/22 04:32:33;;;;;;;;;;;18.60;64.30;;;;;;5114376;28;19916;-92
2022/12/22 04:34:59;;;;;;;;;;;18.70;63.80;;;;;;5113026;28;19908;-93
2022/12/22 04:37:24;;;;;;;;;;;18.80;63.40;;;;;;5079258;28;19916;-92
2022/12/22 04:39:50;;;;;;;;;;;18.80;63.20;;;;;;5080297;28;19922;-91
2022/12/22 04:42:16;;;;;;;;;;;18.80;63.20;;;;;;5078848;28;20200;-92
2022/12/22 04:44:41;;;;;;;;;;;18.70;63.30;;;;;;5081755;28;19908;-92
2022/12/22 04:47:07;;;;;;;;;;;18.70;63.60;;;;;;5081613;28;20006;-93
2022/12/22 04:49:32;;;;;;;;;;;18.60;64.00;;;;;;5081499;28;19908;-92
2022/12/22 04:51:58;;;;;;;;;;;18.50;64.40;;;;;;5080324;28;19908;-92
2022/12/22 04:54:24;;;;;;;;;;;18.40;64.90;;;;;;5079344;28;20162;-92
2022/12/22 04:56:49;;;;;;;;;;;18.30;65.40;;;;;;5078727;28;20293;-92
2022/12/22 04:59:15;;;;;;;;;;;18.20;66.00;;;;;;5078488;28;19939;-93
2022/12/22 05:01:41;;;;;;;;;;;18.20;66.50;;;;;;5111869;28;19950;-93
2022/12/22 05:04:06;;;;;;;;;;;18.10;67.10;;;;;;5079533;28;19912;-93
2022/12/22 05:06:32;;;;;;;;;;;18.00;67.60;;;;;;5078918;28;19909;-92
2022/12/22 05:08:57;;;;;;;;;;;17.90;68.10;;;;;;5080063;28;19995;-92
2022/12/22 05:11:23;;;;;;;;;;;17.80;68.60;;;;;;5080130;28;20065;-92
2022/12/22 05:13:49;;;;;;;;;;;17.70;69.10;;;;;;5078612;28;19970;-92
2022/12/22 05:16:15;;;;;;;;;;;17.60;69.50;;;;;;5078652;28;19908;-93
2022/12/22 05:18:41;;;;;;;;;;;17.60;70.10;;;;;;5113568;28;20264;-93
2022/12/22 05:21:17;;;;;;;;;;;17.50;70.60;;;;;;5111045;28;20289;-93
2022/12/22 05:23:43;;;;;;;;;;;17.40;71.20;;;;;;5112286;28;19908;-93
2022/12/22 05:26:09;;;;;;;;;;;17.30;71.80;;;;;;5112238;28;19908;-92
2022/12/22 05:28:35;;;;;;;;;;;17.20;72.20;;;;;;5114134;28;19912;-92
2022/12/22 05:31:07;;;;;;;;;;;17.20;72.90;;;;;;5114063;28;19908;-93
2022/12/22 05:33:33;;;;;;;;;;;17.10;73.40;;;;;;5113227;28;19946;-93
2022/12/22 05:36:00;;;;;;;;;;;17.00;73.90;;;;;;5112051;28;20015;-93
2022/12/22 05:38:26;;;;;;;;;;;17.00;74.50;;;;;;5077915;28;19915;-93
2022/12/22 05:40:51;;;;;;;;;;;16.90;74.90;;;;;;5110999;28;20059;-93
2022/12/22 05:43:17;;;;;;;;;;;16.90;75.40;;;;;;5077715;28;19908;-93
2022/12/22 05:45:44;;;;;;;;;;;16.80;75.80;;;;;;5078133;28;20170;-92
2022/12/22 05:48:09;;;;;;;;;;;16.70;76.80;;;;;;5110980;28;19915;-92
2022/12/22 05:50:35;;;;;;;;;;;16.70;76.60;;;;;;5074622;28;19908;-92
2022/12/22 05:53:00;;;;;;;;;;;16.60;76.90;;;;;;5076591;28;20270;-93
2022/12/22 05:55:26;;;;;;;;;;;16.60;77.40;;;;;;5076890;28;19993;-93
2022/12/22 05:57:52;;;;;;;;;;;16.50;77.70;;;;;;5078045;28;19908;-92
2022/12/22 06:00:38;;;;;;;;;;;16.50;78.00;;;;;;5079511;28;19912;-93
2022/12/22 06:03:03;;;;;;;;;;;16.50;78.20;;;;;;5116077;28;19908;-93
2022/12/22 06:05:30;;;;;;;;;;;16.50;78.30;;;;;;5081201;28;19908;-93
2022/12/22 06:07:56;;;;;;;;;;;16.40;78.30;;;;;;5114260;28;19967;-93
2022/12/22 06:10:21;;;;;;;;;;;16.40;78.30;;;;;;5080803;28;20041;-92
2022/12/22 06:12:47;;;;;;;;;;;16.50;78.30;;;;;;5080352;28;19912;-93
2022/12/22 06:15:13;;;;;;;;;;;16.50;78.00;;;;;;5080003;28;19912;-93
2022/12/22 06:17:39;;;;;;;;;;;16.60;77.60;;;;;;5112975;28;19912;-93
2022/12/22 06:20:05;;;;;;;;;;;16.70;77.00;;;;;;5079734;28;19916;-92
2022/12/22 06:22:31;;;;;;;;;;;16.80;76.10;;;;;;5114192;28;20166;-93
2022/12/22 06:24:57;;;;;;;;;;;16.90;75.30;;;;;;5116017;28;19912;-93
2022/12/22 06:27:22;;;;;;;;;;;17.10;74.30;;;;;;5081572;28;19908;-92
2022/12/22 06:29:48;;;;;;;;;;;17.30;73.40;;;;;;5080965;28;19912;-93
2022/12/22 06:32:13;;;;;;;;;;;17.40;72.40;;;;;;5081831;28;19938;-93
2022/12/22 06:34:39;;;;;;;;;;;17.50;71.80;;;;;;5078142;28;19908;-93
2022/12/22 06:37:04;;;;;;;;;;;17.50;71.50;;;;;;5077173;28;19915;-93
2022/12/22 06:39:30;;;;;;;;;;;17.50;71.20;;;;;;5080436;28;19973;-93
2022/12/22 06:44:40;;;;;;;;;;;17.60;71.00;;;;;;5096777;28;20205;-93
2022/12/22 06:47:06;;;;;;;;;;;17.60;70.90;;;;;;5076985;28;19908;-93
2022/12/22 06:49:31;;;;;;;;;;;17.60;71.30;;;;;;5077411;28;19942;-92
2022/12/22 06:51:58;;;;;;;;;;;17.50;71.60;;;;;;5074498;28;19908;-92
2022/12/22 06:54:23;;;;;;;;;;;17.40;72.10;;;;;;5075054;28;20277;-93
2022/12/22 06:56:49;;;;;;;;;;;17.40;72.70;;;;;;5074779;28;19959;-92
2022/12/22 06:59:15;;;;;;;;;;;17.30;73.10;;;;;;5075869;28;20127;-92
2022/12/22 07:01:41;;;;;;;;;;;17.20;73.80;;;;;;5076966;28;20235;-92
2022/12/22 07:04:07;;;;;;;;;;;17.10;74.20;;;;;;5075696;28;20243;-92
2022/12/22 07:06:33;;;;;;;;;;;17.10;75.00;;;;;;5108598;28;19994;-92
2022/12/22 07:08:59;;;;;;;;;;;17.00;75.60;;;;;;5072665;28;20254;-93
2022/12/22 07:11:24;;;;;;;;;;;16.90;76.20;;;;;;5073984;28;20297;-93
2022/12/22 07:13:50;;;;;;;;;;;16.90;76.90;;;;;;5073754;28;19977;-92
2022/12/22 07:16:16;;;;;;;;;;;16.80;77.50;;;;;;5074532;28;20089;-92
2022/12/22 07:18:42;;;;;;;;;;;16.80;78.10;;;;;;5075720;28;19914;-93
2022/12/22 07:21:08;;;;;;;;;;;16.70;78.60;;;;;;5109081;28;19923;-93
2022/12/22 07:23:34;;;;;;;;;;;16.60;79.20;;;;;;5107480;28;19920;-93
2022/12/22 07:26:00;;;;;;;;;;;16.60;79.60;;;;;;5075117;28;19908;-93
2022/12/22 07:28:26;;;;;;;;;;;16.60;80.20;;;;;;5111210;28;19919;-93
2022/12/22 07:30:52;;;;;;;;;;;16.50;80.70;;;;;;5108898;28;20270;-93
2022/12/22 07:33:18;;;;;;;;;;;16.50;81.10;;;;;;5110316;28;19916;-93
2022/12/22 07:35:44;;;;;;;;;;;16.50;81.50;;;;;;5078686;28;19919;-92
2022/12/22 07:38:09;;;;;;;;;;;16.50;82.10;;;;;;5111725;28;19965;-93
2022/12/22 07:40:35;;;;;;;;;;;16.40;82.10;;;;;;5076369;28;20270;-93
2022/12/22 07:43:01;;;;;;;;;;;16.40;82.20;;;;;;5077338;28;19908;-92
2022/12/22 07:45:27;;;;;;;;;;;16.40;82.50;;;;;;5095583;28;19957;-93
2022/12/22 07:47:57;;;;;;;;;;;16.40;82.70;;;;;;5111378;28;19920;-93
2022/12/22 07:50:27;;;;;;;;;;;16.40;82.90;;;;;;5110249;28;19916;-93
2022/12/22 07:53:00;;;;;;;;;;;16.40;83.10;;;;;;5110957;28;19908;-93
2022/12/22 07:55:27;;;;;;;;;;;16.40;83.00;;;;;;5110654;28;20002;-92
2022/12/22 07:57:53;;;;;;;;;;;16.50;83.20;;;;;;5107571;28;19912;-92
2022/12/22 08:00:19;;;;;;;;;;;16.50;83.10;;;;;;5108104;28;19912;-92
2022/12/22 08:02:48;;;;;;;;;;;16.50;83.10;;;;;;5108052;28;19916;-92
2022/12/22 08:05:14;;;;;;;;;;;16.60;83.10;;;;;;5107611;28;20239;-92
2022/12/22 08:07:39;;;;;;;;;;;16.60;83.80;;;;;;5073022;28;19995;-92
2022/12/22 08:10:05;;;;;;;;;;;16.60;83.20;;;;;;5072067;28;19912;-93
2022/12/22 08:12:31;;;;;;;;;;;16.60;83.30;;;;;;5106295;28;20344;-92
2022/12/22 08:14:58;;;;;;;;;;;16.50;83.60;;;;;;5074130;28;19908;-92
2022/12/22 08:17:25;;;;;;;;;;;16.50;83.70;;;;;;5109497;28;20365;-92
2022/12/22 08:19:50;;;;;;;;;;;16.50;84.00;;;;;;5106800;28;20296;-92
2022/12/22 08:22:16;;;;;;;;;;;16.50;84.30;;;;;;5089335;28;20102;-93
2022/12/22 08:24:47;;;;;;;;;;;16.50;84.30;;;;;;5073313;28;19908;-93
2022/12/22 08:27:14;;;;;;;;;;;16.40;84.40;;;;;;5071483;28;19950;-92
2022/12/22 08:29:42;;;;;;;;;;;16.40;84.60;;;;;;5104771;28;20137;-92
2022/12/22 08:32:10;;;;;;;;;;;16.40;84.70;;;;;;5106897;28;20288;-92
2022/12/22 08:34:35;;;;;;;;;;;16.40;84.80;;;;;;5106701;28;19908;-92
2022/12/22 08:37:01;;;;;;;;;;;16.40;85.00;;;;;;5071847;28;19934;-92
2022/12/22 08:39:30;;;;;;;;;;;16.40;84.90;;;;;;5091835;28;20154;-92
2022/12/22 08:41:56;;;;;;;;;;;16.40;85.00;;;;;;5108233;28;20435;-92
2022/12/22 08:44:26;;;;;;;;;;;16.50;85.60;;;;;;5106092;28;19972;-92
2022/12/22 08:46:53;;;;;;;;;;;16.50;84.90;;;;;;5105365;28;19965;-92
2022/12/22 08:49:19;;;;;;;;;;;16.50;84.70;;;;;;5104292;28;19908;-92
2022/12/22 08:51:45;;;;;;;;;;;16.60;84.50;;;;;;5069727;28;20457;-91
2022/12/22 08:54:11;;;;;;;;;;;16.60;84.20;;;;;;5069886;28;19919;-92
2022/12/22 08:56:36;;;;;;;;;;;16.60;83.90;;;;;;5107571;28;20320;-91
2022/12/22 08:59:04;;;;;;;;;;;16.70;83.70;;;;;;5072411;28;19945;-92
2022/12/22 09:01:30;;;;;;;;;;;16.70;83.50;;;;;;5107491;28;20172;-92
2022/12/22 09:03:55;;;;;;;;;;;16.80;83.20;;;;;;5106051;28;20406;-92
2022/12/22 09:06:22;;;;;;;;;;;16.80;83.00;;;;;;5071533;28;19914;-92
2022/12/22 09:08:48;;;;;;;;;;;16.80;83.20;;;;;;5104140;28;19938;-92
2022/12/22 09:11:14;;;;;;;;;;;16.80;83.20;;;;;;5070505;28;20262;-91
2022/12/22 09:13:39;;;;;;;;;;;16.80;83.10;;;;;;5102892;28;19914;-92
2022/12/22 09:16:06;;;;;;;;;;;16.80;83.20;;;;;;5078052;28;19917;-92
2022/12/22 09:18:33;;;;;;;;;;;16.80;83.20;;;;;;5103144;28;20044;-92
2022/12/22 09:20:58;;;;;;;;;;;16.80;83.40;;;;;;5102588;28;19931;-92
2022/12/22 09:23:24;;;;;;;;;;;16.80;83.70;;;;;;5068072;28;19908;-92
2022/12/22 09:25:50;;;;;;;;;;;16.70;83.90;;;;;;5099454;28;19919;-91
2022/12/22 09:28:16;;;;;;;;;;;16.70;84.20;;;;;;5100268;28;19912;-92
2022/12/22 09:30:42;;;;;;;;;;;16.70;84.40;;;;;;5067461;28;19970;-90
2022/12/22 09:33:07;;;;;;;;;;;16.70;84.60;;;;;;5075066;28;19916;-91
2022/12/22 09:35:33;;;;;;;;;;;16.70;85.00;;;;;;5075560;28;19970;-92
2022/12/22 09:37:58;;;;;;;;;;;16.60;85.30;;;;;;5076515;28;19936;-91
2022/12/22 09:40:25;;;;;;;;;;;16.60;85.40;;;;;;5078343;28;19986;-92
2022/12/22 09:42:51;;;;;;;;;;;16.60;85.80;;;;;;5097163;28;19972;-92
2022/12/22 09:45:20;;;;;;;;;;;16.60;86.00;;;;;;5079444;28;19916;-92
2022/12/22 09:47:52;;;;;;;;;;;16.60;86.20;;;;;;5113587;28;19916;-91
2022/12/22 09:50:25;;;;;;;;;;;16.60;86.60;;;;;;5111343;28;19919;-92
2022/12/22 09:52:56;;;;;;;;;;;16.60;86.80;;;;;;5112078;28;20163;-92
2022/12/22 09:55:31;;;;;;;;;;;16.60;87.10;;;;;;5110468;28;19937;-92
2022/12/22 09:57:56;;;;;;;;;;;16.60;88.10;;;;;;5077905;28;19917;-92
2022/12/22 10:00:27;;;;;;;;;;;16.60;87.50;;;;;;5077102;28;19941;-91
2022/12/22 10:03:01;;;;;;;;;;;16.60;87.60;;;;;;5111468;28;20011;-92
2022/12/22 10:05:31;;;;;;;;;;;16.60;87.90;;;;;;5111343;28;20349;-92
2022/12/22 10:08:01;;;;;;;;;;;16.60;88.00;;;;;;5076372;28;20015;-91
2022/12/22 10:10:27;;;;;;;;;;;16.60;88.20;;;;;;5110054;28;20352;-91
2022/12/22 10:12:54;;;;;;;;;;;16.60;88.50;;;;;;5111550;28;20366;-92
2022/12/22 10:15:21;;;;;;;;;;;16.60;88.70;;;;;;5111138;28;19909;-91
2022/12/22 10:17:49;;;;;;;;;;;16.60;88.80;;;;;;5109610;28;20214;-92
2022/12/22 10:20:20;;;;;;;;;;;16.60;88.90;;;;;;5110453;28;20019;-92
2022/12/22 10:22:49;;;;;;;;;;;16.60;89.20;;;;;;5077411;28;19907;-92
2022/12/22 10:25:30;;;;;;;;;;;16.60;89.30;;;;;;5076074;28;19912;-91
2022/12/22 10:27:57;;;;;;;;;;;16.60;89.10;;;;;;5075273;28;20018;-91
2022/12/22 10:30:24;;;;;;;;;;;16.60;89.30;;;;;;5109968;28;20269;-91
2022/12/22 10:33:07;;;;;;;;;;;16.60;89.40;;;;;;5108449;28;19916;-91
2022/12/22 10:35:43;;;;;;;;;;;16.70;89.40;;;;;;5108813;28;20019;-91
2022/12/22 10:38:14;;;;;;;;;;;16.70;89.30;;;;;;5108750;28;19958;-91
2022/12/22 10:40:45;;;;;;;;;;;16.70;89.90;;;;;;5108335;28;19927;-91
2022/12/22 10:43:17;;;;;;;;;;;16.70;89.20;;;;;;5106781;28;20163;-91
2022/12/22 10:45:45;;;;;;;;;;;16.70;89.00;;;;;;5106372;28;19908;-91
2022/12/22 10:48:11;;;;;;;;;;;16.70;88.80;;;;;;5105499;28;19912;-91
2022/12/22 10:50:43;;;;;;;;;;;16.70;88.70;;;;;;5071435;28;20108;-91
2022/12/22 10:53:08;;;;;;;;;;;16.70;88.50;;;;;;5107912;28;19916;-92
2022/12/22 10:55:37;;;;;;;;;;;16.80;88.50;;;;;;5073412;28;19942;-91
2022/12/22 10:58:09;;;;;;;;;;;16.70;88.50;;;;;;5072975;28;20133;-92
2022/12/22 11:00:36;;;;;;;;;;;16.70;88.50;;;;;;5073423;28;20353;-92
2022/12/22 11:03:03;;;;;;;;;;;16.70;88.50;;;;;;5105700;28;19918;-92
2022/12/22 11:05:30;;;;;;;;;;;16.70;88.50;;;;;;5108669;28;19908;-92
2022/12/22 11:07:56;;;;;;;;;;;16.70;88.60;;;;;;5107640;28;19913;-92
2022/12/22 11:10:40;;;;;;;;;;;16.70;88.60;;;;;;5105636;28;19908;-92
2022/12/22 11:13:06;;;;;;;;;;;16.70;88.80;;;;;;5106669;28;19919;-91
2022/12/22 11:15:37;;;;;;;;;;;16.60;88.90;;;;;;5073917;28;20269;-92
2022/12/22 11:18:19;;;;;;;;;;;16.60;88.90;;;;;;5072320;28;19908;-92
2022/12/22 11:20:45;;;;;;;;;;;16.60;89.00;;;;;;5108995;28;19912;-92
2022/12/22 11:23:19;;;;;;;;;;;16.70;89.10;;;;;;5074710;28;19908;-92
2022/12/22 11:26:03;;;;;;;;;;;16.70;88.80;;;;;;5107655;28;20291;-92
2022/12/22 11:28:38;;;;;;;;;;;16.80;88.70;;;;;;5106480;28;20006;-91
2022/12/22 11:31:36;;;;;;;;;;;16.80;88.40;;;;;;5108410;28;20000;-92
2022/12/22 11:34:02;;;;;;;;;;;16.70;88.50;;;;;;5039110;28;20197;-92
2022/12/22 11:36:37;;;;;;;;;;;16.80;88.50;;;;;;5075429;28;19923;-91
2022/12/22 11:39:07;;;;;;;;;;;16.80;88.40;;;;;;5075033;28;20012;-92
2022/12/22 11:41:51;;;;;;;;;;;16.80;88.30;;;;;;5107697;28;19916;-91
2022/12/22 11:44:29;;;;;;;;;;;16.90;88.20;;;;;;5107520;28;20006;-92
2022/12/22 11:46:58;;;;;;;;;;;16.90;88.00;;;;;;5071588;28;19908;-92
2022/12/22 11:50:02;;;;;;;;;;;16.90;88.10;;;;;;5073587;28;20002;-91
2022/12/22 11:52:46;;;;;;;;;;;16.90;88.20;;;;;;5010378;28;19979;-91
2022/12/22 11:55:15;;;;;;;;;;;16.80;88.10;;;;;;5008259;28;19944;-92
2022/12/22 11:57:44;;;;;;;;;;;16.80;88.20;;;;;;5046189;28;19972;-92
2022/12/22 12:00:16;;;;;;;;;;;16.80;88.40;;;;;;5068944;28;20223;-92
2022/12/22 12:02:48;;;;;;;;;;;16.80;88.30;;;;;;5102979;28;19908;-91
2022/12/22 12:05:14;;;;;;;;;;;16.80;88.20;;;;;;5069197;28;19908;-92
2022/12/22 12:07:41;;;;;;;;;;;16.80;88.20;;;;;;5071070;28;19952;-92
2022/12/22 12:10:13;;;;;;;;;;;16.80;88.10;;;;;;5105352;28;19916;-92
2022/12/22 12:12:48;;;;;;;;;;;16.80;88.00;;;;;;5068740;28;20313;-92
2022/12/22 12:15:29;;;;;;;;;;;16.90;87.80;;;;;;5069809;28;20356;-91
2022/12/22 12:18:07;;;;;;;;;;;17.00;87.60;;;;;;5104436;28;19908;-92
2022/12/22 12:20:52;;;;;;;;;;;17.10;86.90;;;;;;5069600;28;20067;-92
2022/12/22 12:23:37;;;;;;;;;;;17.30;86.00;;;;;;5104558;28;20006;-92
2022/12/22 12:26:09;;;;;;;;;;;17.50;84.80;;;;;;5097557;28;19909;-92
2022/12/22 12:28:43;;;;;;;;;;;17.70;83.20;;;;;;5093332;28;19939;-92
2022/12/22 12:31:11;;;;;;;;;;;17.80;81.90;;;;;;5052144;28;20031;-92
2022/12/22 12:34:00;;;;;;;;;;;18.00;80.30;;;;;;5081768;28;20185;-91
2022/12/22 12:36:26;;;;;;;;;;;18.10;79.20;;;;;;5081500;28;19999;-92
2022/12/22 12:39:11;;;;;;;;;;;18.30;78.00;;;;;;5049173;28;20015;-90
2022/12/22 12:41:47;;;;;;;;;;;18.30;77.20;;;;;;5082721;28;19912;-91
2022/12/22 12:44:15;;;;;;;;;;;18.40;76.90;;;;;;5086563;28;19908;-92
2022/12/22 12:46:52;;;;;;;;;;;18.30;76.60;;;;;;5069576;28;20007;-92
2022/12/22 12:49:38;;;;;;;;;;;18.30;76.80;;;;;;5084239;28;20066;-92
2022/12/22 12:52:08;;;;;;;;;;;18.20;77.10;;;;;;5018741;28;19920;-92
2022/12/22 12:54:38;;;;;;;;;;;18.20;77.30;;;;;;5079679;28;19908;-92
2022/12/22 12:57:06;;;;;;;;;;;18.10;77.40;;;;;;5081198;28;19948;-92
2022/12/22 12:59:38;;;;;;;;;;;18.10;77.70;;;;;;5048676;28;19912;-92
2022/12/22 13:02:23;;;;;;;;;;;18.10;78.00;;;;;;5048683;28;19913;-92
2022/12/22 13:05:04;;;;;;;;;;;18.00;78.10;;;;;;5080944;28;19909;-92
2022/12/22 13:07:48;;;;;;;;;;;18.00;78.40;;;;;;5081840;28;20259;-92
2022/12/22 13:10:18;;;;;;;;;;;17.90;78.60;;;;;;5081395;28;19915;-92
2022/12/22 13:12:51;;;;;;;;;;;17.90;79.10;;;;;;5078792;28;19915;-92
2022/12/22 13:15:34;;;;;;;;;;;17.80;79.50;;;;;;5080427;28;20003;-92
2022/12/22 13:18:00;;;;;;;;;;;17.70;80.00;;;;;;5080947;28;19909;-92
2022/12/22 13:20:29;;;;;;;;;;;17.70;80.50;;;;;;5080602;28;20131;-92
2022/12/22 13:22:55;;;;;;;;;;;17.60;80.90;;;;;;5077720;28;20355;-92
2022/12/22 13:25:22;;;;;;;;;;;17.50;81.40;;;;;;5065045;28;19999;-92
2022/12/22 13:27:49;;;;;;;;;;;17.50;81.70;;;;;;5083409;28;19916;-92
2022/12/22 13:30:17;;;;;;;;;;;17.40;82.10;;;;;;5080718;28;19923;-92
2022/12/22 13:32:44;;;;;;;;;;;17.40;82.60;;;;;;5081970;28;19939;-92
2022/12/22 13:35:20;;;;;;;;;;;17.30;82.90;;;;;;5082960;28;20078;-92
2022/12/22 13:37:47;;;;;;;;;;;17.30;83.30;;;;;;5085142;28;19962;-92
2022/12/22 13:40:13;;;;;;;;;;;17.20;83.50;;;;;;5083264;28;20023;-92
2022/12/22 13:42:46;;;;;;;;;;;17.20;84.00;;;;;;5069434;28;19995;-93
2022/12/22 13:45:17;;;;;;;;;;;17.10;84.20;;;;;;5084509;28;20258;-92
2022/12/22 13:47:43;;;;;;;;;;;17.10;84.50;;;;;;5084429;28;20244;-93
2022/12/22 13:50:27;;;;;;;;;;;17.10;84.90;;;;;;5084085;28;19908;-92
2022/12/22 13:52:53;;;;;;;;;;;17.00;85.10;;;;;;5079886;28;20057;-92
2022/12/22 13:55:22;;;;;;;;;;;17.00;85.40;;;;;;5078671;28;19915;-92
2022/12/22 13:57:48;;;;;;;;;;;16.90;86.10;;;;;;5081233;28;20198;-92
2022/12/22 14:00:18;;;;;;;;;;;16.90;85.70;;;;;;5082573;28;20273;-92
2022/12/22 14:02:43;;;;;;;;;;;16.90;86.50;;;;;;5081420;28;20037;-92
2022/12/22 14:05:10;;;;;;;;;;;16.90;86.00;;;;;;5050585;28;20019;-92
2022/12/22 14:07:36;;;;;;;;;;;16.90;86.10;;;;;;5080917;28;20547;-92
2022/12/22 14:10:02;;;;;;;;;;;16.90;86.30;;;;;;5078806;28;19952;-92
2022/12/22 14:12:29;;;;;;;;;;;16.90;86.40;;;;;;5080313;28;19991;-92
2022/12/22 14:14:55;;;;;;;;;;;16.90;86.40;;;;;;5083761;28;20076;-92
2022/12/22 14:17:23;;;;;;;;;;;16.90;86.20;;;;;;5082258;28;20314;-92
2022/12/22 14:19:50;;;;;;;;;;;16.90;86.00;;;;;;5088689;28;19982;-92
2022/12/22 14:22:21;;;;;;;;;;;17.00;85.80;;;;;;5054904;28;19916;-93
2022/12/22 14:24:53;;;;;;;;;;;17.00;85.40;;;;;;5052944;28;20165;-92
2022/12/22 14:27:37;;;;;;;;;;;17.10;85.10;;;;;;5053292;28;20019;-92
2022/12/22 14:30:04;;;;;;;;;;;17.20;84.70;;;;;;5053217;28;20115;-92
2022/12/22 14:32:41;;;;;;;;;;;17.20;84.40;;;;;;5053328;28;19974;-92
2022/12/22 14:35:22;;;;;;;;;;;17.20;84.10;;;;;;5052346;28;19916;-92
2022/12/22 14:38:15;;;;;;;;;;;17.20;83.90;;;;;;5052761;28;19916;-92
2022/12/22 14:40:41;;;;;;;;;;;17.20;83.90;;;;;;5050978;28;19920;-93
2022/12/22 14:43:16;;;;;;;;;;;17.20;83.90;;;;;;5051395;28;19974;-92
2022/12/22 14:45:43;;;;;;;;;;;17.20;83.90;;;;;;5051079;28;20043;-93
2022/12/22 14:48:15;;;;;;;;;;;17.20;83.90;;;;;;5049608;28;19967;-92
2022/12/22 14:50:46;;;;;;;;;;;17.10;84.00;;;;;;5050471;28;19936;-92
2022/12/22 14:53:13;;;;;;;;;;;17.10;84.20;;;;;;5047079;28;19912;-92
2022/12/22 14:55:40;;;;;;;;;;;17.00;84.50;;;;;;5049376;28;20285;-93
2022/12/22 14:58:09;;;;;;;;;;;17.00;84.90;;;;;;5048967;28;20029;-93
2022/12/22 15:00:36;;;;;;;;;;;17.00;85.30;;;;;;5049497;28;20272;-92
2022/12/22 15:03:20;;;;;;;;;;;16.90;85.50;;;;;;5048955;28;19991;-93
2022/12/22 15:05:46;;;;;;;;;;;16.80;85.70;;;;;;5051159;28;19913;-93
2022/12/22 15:08:30;;;;;;;;;;;16.80;86.00;;;;;;5049695;28;20178;-93
2022/12/22 15:10:55;;;;;;;;;;;16.80;86.30;;;;;;5053287;28;19926;-93
2022/12/22 15:13:22;;;;;;;;;;;16.70;86.50;;;;;;5052130;28;19908;-92
2022/12/22 15:15:51;;;;;;;;;;;16.70;86.70;;;;;;5053597;28;19931;-93
2022/12/22 15:18:19;;;;;;;;;;;16.70;86.90;;;;;;5088493;28;19908;-92
2022/12/22 15:20:45;;;;;;;;;;;16.60;87.00;;;;;;5069507;28;20526;-92
2022/12/22 15:23:13;;;;;;;;;;;16.60;87.20;;;;;;5072233;28;19973;-92
2022/12/22 15:25:38;;;;;;;;;;;16.60;87.40;;;;;;5073149;28;19919;-93
2022/12/22 15:28:04;;;;;;;;;;;16.60;87.60;;;;;;5070561;28;19908;-93
2022/12/22 15:30:29;;;;;;;;;;;16.50;87.80;;;;;;5070748;28;19966;-92
2022/12/22 15:32:56;;;;;;;;;;;16.50;87.90;;;;;;5069699;28;20084;-93
2022/12/22 15:35:28;;;;;;;;;;;16.50;88.20;;;;;;5068533;28;20171;-93
2022/12/22 15:37:54;;;;;;;;;;;16.50;88.40;;;;;;5066807;28;20160;-93
2022/12/22 15:40:20;;;;;;;;;;;16.40;88.60;;;;;;5067482;28;20328;-92
2022/12/22 15:42:46;;;;;;;;;;;16.40;88.70;;;;;;5070033;28;20072;-92
2022/12/22 15:45:12;;;;;;;;;;;16.40;88.70;;;;;;5069925;28;19909;-92
2022/12/22 15:47:39;;;;;;;;;;;16.40;88.90;;;;;;5069176;28;19908;-92
2022/12/22 15:50:05;;;;;;;;;;;16.30;88.90;;;;;;5069026;28;19939;-92
2022/12/22 15:52:31;;;;;;;;;;;16.40;89.10;;;;;;5068388;28;19908;-92
2022/12/22 15:54:57;;;;;;;;;;;16.30;89.20;;;;;;5065675;28;19908;-92
2022/12/22 15:57:22;;;;;;;;;;;16.30;89.50;;;;;;5065072;28;19912;-93
2022/12/22 15:59:48;;;;;;;;;;;16.40;89.60;;;;;;5066443;28;19919;-93
2022/12/22 16:02:14;;;;;;;;;;;16.60;88.90;;;;;;5068760;28;19915;-93
2022/12/22 16:04:39;;;;;;;;;;;16.70;87.80;;;;;;5070030;28;19993;-93
2022/12/22 16:07:05;;;;;;;;;;;16.90;86.60;;;;;;5068328;28;19926;-92
2022/12/22 16:09:41;;;;;;;;;;;17.00;85.30;;;;;;5066975;28;19908;-92
2022/12/22 16:12:10;;;;;;;;;;;17.20;83.80;;;;;;5069774;28;19940;-92
2022/12/22 16:14:36;;;;;;;;;;;17.40;82.50;;;;;;5070094;28;20356;-91
2022/12/22 16:17:01;;;;;;;;;;;17.50;81.20;;;;;;5074125;28;19939;-92
2022/12/22 16:19:27;;;;;;;;;;;17.70;80.20;;;;;;5074051;28;19908;-92
2022/12/22 16:21:53;;;;;;;;;;;17.80;79.10;;;;;;5070116;28;20064;-93
2022/12/22 16:24:23;;;;;;;;;;;17.80;78.40;;;;;;5069433;28;20055;-92
2022/12/22 16:26:49;;;;;;;;;;;17.80;78.00;;;;;;5069522;28;19908;-92
2022/12/22 16:29:15;;;;;;;;;;;17.80;77.80;;;;;;5069623;28;20077;-92
2022/12/22 16:31:41;;;;;;;;;;;17.80;77.90;;;;;;5067142;28;19916;-92
2022/12/22 16:34:09;;;;;;;;;;;17.70;78.30;;;;;;5067310;28;19916;-93
2022/12/22 16:36:35;;;;;;;;;;;17.70;78.60;;;;;;5068006;28;19908;-93
2022/12/22 16:39:01;;;;;;;;;;;17.60;79.00;;;;;;5066894;28;20097;-93
2022/12/22 16:41:26;;;;;;;;;;;17.50;79.50;;;;;;5067138;28;19919;-93
2022/12/22 16:43:53;;;;;;;;;;;17.40;80.00;;;;;;5069281;28;20013;-93
2022/12/22 16:46:19;;;;;;;;;;;17.40;80.70;;;;;;5070484;28;20331;-93
2022/12/22 16:48:48;;;;;;;;;;;17.30;81.30;;;;;;5073003;28;19966;-93
2022/12/22 16:51:17;;;;;;;;;;;17.10;82.00;;;;;;5072161;28;19904;-93
2022/12/22 16:53:42;;;;;;;;;;;17.10;82.80;;;;;;5074388;28;19908;-93
2022/12/22 16:56:22;;;;;;;;;;;17.00;83.30;;;;;;5077059;28;19927;-94
2022/12/22 16:58:48;;;;;;;;;;;16.90;83.80;;;;;;5079734;28;19908;-94
2022/12/22 17:01:19;;;;;;;;;;;16.80;84.20;;;;;;5079152;28;19912;-94
2022/12/22 17:03:45;;;;;;;;;;;16.80;84.60;;;;;;5073940;28;19915;-92
2022/12/22 17:06:11;;;;;;;;;;;16.70;85.00;;;;;;5072524;28;19908;-93
2022/12/22 17:08:40;;;;;;;;;;;16.70;85.40;;;;;;5074609;28;19912;-94
2022/12/22 17:11:08;;;;;;;;;;;16.70;85.70;;;;;;5073860;28;20278;-94
2022/12/22 17:13:34;;;;;;;;;;;16.60;85.90;;;;;;5076635;28;19929;-94
2022/12/22 17:16:03;;;;;;;;;;;16.60;86.20;;;;;;5077693;28;19908;-94
2022/12/22 17:18:29;;;;;;;;;;;16.60;86.60;;;;;;5078626;28;20118;-93
2022/12/22 17:20:56;;;;;;;;;;;16.50;86.60;;;;;;5074727;28;19947;-94
2022/12/22 17:23:33;;;;;;;;;;;16.50;87.00;;;;;;5076079;28;19935;-94
2022/12/22 17:26:00;;;;;;;;;;;16.50;87.10;;;;;;5076665;28;19908;-94
2022/12/22 17:28:26;;;;;;;;;;;16.50;87.40;;;;;;5077674;28;19908;-93
2022/12/22 17:30:52;;;;;;;;;;;16.40;87.50;;;;;;5077622;28;19919;-94
2022/12/22 17:33:17;;;;;;;;;;;16.40;87.80;;;;;;5077409;28;20309;-93
2022/12/22 17:35:46;;;;;;;;;;;16.40;88.20;;;;;;5074623;28;19999;-93
2022/12/22 17:38:13;;;;;;;;;;;16.40;88.20;;;;;;5073584;28;20007;-93
2022/12/22 17:40:39;;;;;;;;;;;16.40;88.20;;;;;;5082932;28;19919;-92
2022/12/22 17:43:04;;;;;;;;;;;16.40;88.40;;;;;;5074798;28;19908;-94
2022/12/22 17:45:30;;;;;;;;;;;16.40;88.40;;;;;;5075012;28;19909;-93
2022/12/22 17:47:55;;;;;;;;;;;16.40;88.20;;;;;;5092271;28;19916;-94
2022/12/22 17:50:22;;;;;;;;;;;16.50;88.20;;;;;;5090478;28;19913;-93
2022/12/22 17:52:47;;;;;;;;;;;16.50;87.80;;;;;;5073568;28;19908;-94
2022/12/22 17:55:16;;;;;;;;;;;16.60;87.50;;;;;;5076010;28;19962;-93
2022/12/22 17:57:42;;;;;;;;;;;16.60;87.10;;;;;;5076126;28;19966;-93
2022/12/22 18:00:19;;;;;;;;;;;16.70;87.00;;;;;;5077721;28;20106;-93